Time;durP1;ratioP1;P1;durP2;ratioP2;P2;SDS_P1;SDS_P2;PMS_P1;PMS_P2;Temp;Humidity;BMP_temperature;BMP_pressure;BME280_temperature;BME280_humidity;BME280_pressure;Samples;Min_cycle;Max_cycle;Signal;HPM_P1;HPM_P2
2021/12/16 00:02:12;;;;;;;18.63;14.40;;;;;;;;;;5070588;28;20433;-81
2021/12/16 00:05:16;;;;;;;19.20;15.07;;;;;;;;;;5077143;28;20453;-81
2021/12/16 00:07:55;;;;;;;18.80;15.17;;;;;;;;;;5076168;28;20205;-80
2021/12/16 00:10:31;;;;;;;16.90;14.93;;;;;;;;;;5068197;28;20532;-81
2021/12/16 00:32:28;;;;;;;20.03;15.00;;;;;;;;;;5071532;28;20490;-79
2021/12/16 00:34:57;;;;;;;18.40;15.07;;;;;;;;;;5070779;28;20882;-79
2021/12/16 00:37:24;;;;;;;20.53;16.30;;;;;;;;;;5062359;28;20843;-79
2021/12/16 00:39:52;;;;;;;21.90;15.13;;;;;;;;;;5059462;28;20523;-80
2021/12/16 00:42:32;;;;;;;21.20;16.50;;;;;;;;;;5057835;28;20437;-80
2021/12/16 00:45:09;;;;;;;21.43;14.97;;;;;;;;;;5055347;28;20462;-78
2021/12/16 00:47:48;;;;;;;19.70;14.77;;;;;;;;;;5040426;28;20577;-79
2021/12/16 00:54:07;;;;;;;20.83;16.20;;;;;;;;;;5055891;28;20991;-80
2021/12/16 00:55:58;;;;;;;19.30;15.00;;;;;;;;;;5057348;28;20551;-80
2021/12/16 00:58:29;;;;;;;19.00;14.77;;;;;;;;;;5058662;28;20434;-79
2021/12/16 01:01:05;;;;;;;19.83;15.87;;;;;;;;;;5057580;28;20921;-81
2021/12/16 01:03:39;;;;;;;18.80;14.60;;;;;;;;;;5058857;28;20457;-80
2021/12/16 01:06:23;;;;;;;20.92;15.38;;;;;;;;;;5059510;28;20455;-80
2021/12/16 01:33:53;;;;;;;17.07;13.50;;;;;;;;;;5057575;28;20487;-80
2021/12/16 01:47:54;;;;;;;16.60;13.60;;;;;;;;;;5061110;28;20524;-79
2021/12/16 01:50:27;;;;;;;17.00;13.80;;;;;;;;;;5075505;28;20433;-78
2021/12/16 01:53:13;;;;;;;16.57;13.30;;;;;;;;;;5072985;28;20457;-79
2021/12/16 01:55:45;;;;;;;16.88;13.23;;;;;;;;;;5054899;28;20555;-79
2021/12/16 01:58:16;;;;;;;18.37;13.47;;;;;;;;;;5053106;28;20472;-80
2021/12/16 02:00:54;;;;;;;16.53;13.40;;;;;;;;;;5053190;28;20483;-79
2021/12/16 02:03:26;;;;;;;19.03;14.20;;;;;;;;;;5036719;28;20494;-79
2021/12/16 02:06:06;;;;;;;19.60;16.27;;;;;;;;;;5036291;28;20496;-79
2021/12/16 02:08:38;;;;;;;18.02;14.23;;;;;;;;;;5052892;28;20256;-78
2021/12/16 02:11:18;;;;;;;17.53;13.80;;;;;;;;;;5057509;28;20546;-79
2021/12/16 02:31:10;;;;;;;21.40;16.20;;;;;;;;;;5038095;28;20928;-80
2021/12/16 02:33:34;;;;;;;20.70;16.73;;;;;;;;;;5034182;28;20525;-80
2021/12/16 02:36:13;;;;;;;17.50;15.30;;;;;;;;;;5036452;28;20481;-80
2021/12/16 02:38:46;;;;;;;19.53;16.53;;;;;;;;;;5034583;28;20446;-79
2021/12/16 02:41:13;;;;;;;18.77;14.77;;;;;;;;;;5033532;28;21048;-80
2021/12/16 02:44:07;;;;;;;18.77;15.40;;;;;;;;;;5033487;28;20459;-81
2021/12/16 02:49:18;;;;;;;20.23;15.23;;;;;;;;;;5055540;28;20460;-80
2021/12/16 02:51:46;;;;;;;18.03;14.83;;;;;;;;;;5057760;28;20434;-78
2021/12/16 02:54:14;;;;;;;16.90;13.60;;;;;;;;;;5056865;28;20454;-79
2021/12/16 02:56:41;;;;;;;17.60;13.40;;;;;;;;;;5057657;28;20473;-79
2021/12/16 02:59:08;;;;;;;18.45;14.18;;;;;;;;;;5059819;28;20453;-80
2021/12/16 03:01:38;;;;;;;18.10;14.23;;;;;;;;;;5056842;28;20198;-79
2021/12/16 03:04:08;;;;;;;20.03;14.90;;;;;;;;;;5057131;28;20921;-80
2021/12/16 03:06:36;;;;;;;17.53;14.87;;;;;;;;;;5058097;28;20454;-80
2021/12/16 03:09:05;;;;;;;19.93;16.40;;;;;;;;;;5058852;28;20450;-79
2021/12/16 03:11:43;;;;;;;19.93;15.80;;;;;;;;;;5066089;28;20452;-79
2021/12/16 03:17:08;;;;;;;17.27;14.60;;;;;;;;;;5077444;28;20500;-79
2021/12/16 03:19:48;;;;;;;16.55;13.30;;;;;;;;;;5078827;28;20449;-79
2021/12/16 03:22:28;;;;;;;17.50;13.87;;;;;;;;;;5078140;28;20203;-79
2021/12/16 03:25:11;;;;;;;18.53;14.43;;;;;;;;;;5057498;28;20476;-79
2021/12/16 03:30:51;;;;;;;18.30;14.90;;;;;;;;;;5061131;28;20421;-80
2021/12/16 03:33:34;;;;;;;20.20;14.63;;;;;;;;;;5058329;28;20517;-79
2021/12/16 03:36:07;;;;;;;16.23;13.37;;;;;;;;;;5058722;28;20477;-79
2021/12/16 03:38:35;;;;;;;19.03;15.00;;;;;;;;;;5059307;28;20457;-80
2021/12/16 03:41:02;;;;;;;17.70;15.00;;;;;;;;;;5060085;28;20442;-80
2021/12/16 03:43:32;;;;;;;19.60;14.67;;;;;;;;;;5060898;28;20441;-79
2021/12/16 03:48:47;;;;;;;19.57;15.00;;;;;;;;;;5060289;28;20517;-79
2021/12/16 03:51:16;;;;;;;20.60;15.73;;;;;;;;;;5059443;28;20453;-80
2021/12/16 03:53:43;;;;;;;18.90;14.63;;;;;;;;;;5058403;28;20437;-78
2021/12/16 03:56:11;;;;;;;18.87;14.13;;;;;;;;;;5058907;28;20489;-80
2021/12/16 03:58:41;;;;;;;18.73;15.10;;;;;;;;;;5061597;28;20520;-79
2021/12/16 04:01:10;;;;;;;20.70;16.37;;;;;;;;;;5060287;28;20806;-79
2021/12/16 04:03:38;;;;;;;18.40;15.37;;;;;;;;;;5059176;28;20988;-79
2021/12/16 04:06:05;;;;;;;19.73;15.53;;;;;;;;;;5059346;28;20462;-79
2021/12/16 04:08:32;;;;;;;18.80;15.13;;;;;;;;;;5066052;28;20448;-79
2021/12/16 04:11:04;;;;;;;21.87;15.47;;;;;;;;;;5064797;28;20452;-79
2021/12/16 04:13:35;;;;;;;23.53;17.20;;;;;;;;;;5062605;28;20450;-80
2021/12/16 04:16:04;;;;;;;20.67;15.13;;;;;;;;;;5062689;28;20532;-80
2021/12/16 04:18:31;;;;;;;19.07;15.50;;;;;;;;;;5059292;28;20439;-80
2021/12/16 04:20:59;;;;;;;22.07;15.50;;;;;;;;;;5052950;28;20450;-79
2021/12/16 04:23:26;;;;;;;22.70;17.10;;;;;;;;;;5057491;28;20433;-78
2021/12/16 04:25:53;;;;;;;23.17;17.00;;;;;;;;;;5058690;28;20454;-79
2021/12/16 04:28:21;;;;;;;20.33;16.57;;;;;;;;;;5058808;28;20456;-80
2021/12/16 04:30:49;;;;;;;23.07;17.03;;;;;;;;;;5059150;28;20448;-80
2021/12/16 04:33:17;;;;;;;22.10;17.10;;;;;;;;;;5057801;28;20498;-80
2021/12/16 04:35:44;;;;;;;19.20;15.20;;;;;;;;;;5056355;28;20485;-79
2021/12/16 04:38:12;;;;;;;23.27;16.73;;;;;;;;;;5056409;28;20449;-78
2021/12/16 04:40:43;;;;;;;21.73;16.20;;;;;;;;;;5058093;28;20446;-79
2021/12/16 04:43:18;;;;;;;20.00;16.00;;;;;;;;;;5058738;28;20494;-79
2021/12/16 04:45:45;;;;;;;23.27;16.48;;;;;;;;;;5060429;28;20840;-79
2021/12/16 04:48:12;;;;;;;20.07;15.57;;;;;;;;;;5055868;28;20195;-79
2021/12/16 04:50:40;;;;;;;20.50;15.30;;;;;;;;;;5058016;28;20994;-80
2021/12/16 04:53:07;;;;;;;22.77;16.53;;;;;;;;;;5056765;28;20442;-78
2021/12/16 04:55:34;;;;;;;23.27;17.10;;;;;;;;;;5056115;28;20477;-80
2021/12/16 04:58:01;;;;;;;23.53;17.53;;;;;;;;;;5056363;28;20446;-79
2021/12/16 05:00:28;;;;;;;21.97;16.67;;;;;;;;;;5056679;28;20434;-80
2021/12/16 05:02:56;;;;;;;24.67;17.00;;;;;;;;;;5054652;28;20446;-79
2021/12/16 05:05:24;;;;;;;21.97;16.10;;;;;;;;;;5055978;28;20561;-79
2021/12/16 05:07:53;;;;;;;21.70;16.40;;;;;;;;;;5056139;28;20443;-79
2021/12/16 05:10:21;;;;;;;22.27;16.07;;;;;;;;;;5056995;28;20437;-79
2021/12/16 05:12:50;;;;;;;25.00;17.13;;;;;;;;;;5076363;28;20450;-78
2021/12/16 05:15:18;;;;;;;25.43;17.47;;;;;;;;;;5076164;28;20452;-79
2021/12/16 05:17:49;;;;;;;23.37;18.50;;;;;;;;;;5074350;28;20461;-79
2021/12/16 05:20:18;;;;;;;25.57;17.87;;;;;;;;;;5074506;28;20442;-80
2021/12/16 05:25:44;;;;;;;26.30;18.97;;;;;;;;;;5076996;28;20497;-79
2021/12/16 05:28:12;;;;;;;30.63;19.67;;;;;;;;;;5077466;28;20443;-79
2021/12/16 05:30:39;;;;;;;25.30;17.87;;;;;;;;;;5077100;28;20436;-79
2021/12/16 05:33:07;;;;;;;25.67;18.87;;;;;;;;;;5077008;28;20444;-78
2021/12/16 05:35:34;;;;;;;24.50;18.37;;;;;;;;;;5074788;28;20466;-78
2021/12/16 05:38:01;;;;;;;30.10;20.60;;;;;;;;;;5066654;28;20437;-79
2021/12/16 05:40:29;;;;;;;26.00;18.10;;;;;;;;;;5057819;28;20857;-80
2021/12/16 05:42:59;;;;;;;28.52;19.95;;;;;;;;;;5058361;28;20437;-79
2021/12/16 05:45:27;;;;;;;28.40;19.00;;;;;;;;;;5057311;28;20694;-79
2021/12/16 05:47:55;;;;;;;25.47;18.00;;;;;;;;;;5065220;28;20438;-79
2021/12/16 05:50:22;;;;;;;29.67;19.10;;;;;;;;;;5069393;28;20537;-79
2021/12/16 05:52:49;;;;;;;26.90;18.77;;;;;;;;;;5067873;28;20940;-79
2021/12/16 05:55:17;;;;;;;26.05;17.63;;;;;;;;;;5071109;28;20464;-79
2021/12/16 05:57:44;;;;;;;27.83;17.87;;;;;;;;;;5066359;28;20219;-79
2021/12/16 06:00:16;;;;;;;26.87;18.63;;;;;;;;;;5060155;28;20449;-79
2021/12/16 06:02:43;;;;;;;24.50;17.07;;;;;;;;;;5063579;28;20790;-80
2021/12/16 06:05:10;;;;;;;23.73;15.90;;;;;;;;;;5058314;28;20458;-80
2021/12/16 06:07:37;;;;;;;24.23;17.03;;;;;;;;;;5061194;28;20430;-79
2021/12/16 06:10:06;;;;;;;23.97;17.47;;;;;;;;;;5064732;28;20445;-79
2021/12/16 06:12:33;;;;;;;35.87;25.23;;;;;;;;;;5065105;28;20456;-79
2021/12/16 06:15:16;;;;;;;28.20;20.03;;;;;;;;;;5067102;28;20449;-80
2021/12/16 06:28:47;;;;;;;26.00;17.67;;;;;;;;;;5064235;28;20416;-79
2021/12/16 06:31:14;;;;;;;27.23;17.87;;;;;;;;;;5062877;28;20434;-80
2021/12/16 06:33:43;;;;;;;23.95;18.10;;;;;;;;;;5062711;28;20441;-80
2021/12/16 06:36:10;;;;;;;24.97;17.67;;;;;;;;;;5061900;28;20234;-80
2021/12/16 06:38:37;;;;;;;21.07;16.57;;;;;;;;;;5060044;28;20449;-80
2021/12/16 06:41:04;;;;;;;24.77;16.83;;;;;;;;;;5060438;28;20441;-80
2021/12/16 06:43:33;;;;;;;22.67;16.10;;;;;;;;;;5060503;28;20441;-81
2021/12/16 06:46:02;;;;;;;21.88;16.85;;;;;;;;;;5061540;28;20215;-80
2021/12/16 06:48:33;;;;;;;22.60;16.13;;;;;;;;;;5060110;28;20294;-80
2021/12/16 06:51:07;;;;;;;22.67;14.53;;;;;;;;;;5060407;28;20623;-79
2021/12/16 06:53:46;;;;;;;24.90;17.33;;;;;;;;;;5059468;28;20453;-79
2021/12/16 06:56:19;;;;;;;20.80;14.80;;;;;;;;;;5060157;28;20560;-80
2021/12/16 06:58:49;;;;;;;25.17;15.83;;;;;;;;;;5059925;28;20434;-80
2021/12/16 07:01:30;;;;;;;24.37;16.63;;;;;;;;;;5061409;28;20442;-80
2021/12/16 07:03:57;;;;;;;23.60;16.27;;;;;;;;;;5040202;28;20537;-81
2021/12/16 07:06:27;;;;;;;23.13;15.90;;;;;;;;;;5041808;28;20449;-80
2021/12/16 07:08:55;;;;;;;22.73;16.10;;;;;;;;;;5041196;28;20430;-80
2021/12/16 07:11:23;;;;;;;24.13;16.40;;;;;;;;;;5041363;28;20450;-80
2021/12/16 07:13:57;;;;;;;22.93;15.23;;;;;;;;;;5041205;28;20431;-80
2021/12/16 07:16:24;;;;;;;22.73;16.17;;;;;;;;;;5042316;28;20486;-79
2021/12/16 07:18:51;;;;;;;33.30;23.80;;;;;;;;;;5053083;28;20455;-79
2021/12/16 07:21:18;;;;;;;26.17;17.53;;;;;;;;;;5055083;28;20465;-80
2021/12/16 07:23:47;;;;;;;23.80;17.10;;;;;;;;;;5054976;28;20447;-80
2021/12/16 07:26:14;;;;;;;22.03;15.70;;;;;;;;;;5057983;28;20477;-80
2021/12/16 07:28:41;;;;;;;97.70;62.73;;;;;;;;;;5074684;28;20457;-79
2021/12/16 07:31:09;;;;;;;48.33;32.93;;;;;;;;;;5074266;28;20437;-79
2021/12/16 07:33:36;;;;;;;22.93;15.90;;;;;;;;;;5076140;28;20456;-80
2021/12/16 07:36:03;;;;;;;22.53;15.83;;;;;;;;;;5071573;28;20478;-81
2021/12/16 07:38:30;;;;;;;22.67;15.23;;;;;;;;;;5076836;28;20434;-80
2021/12/16 07:40:59;;;;;;;21.60;15.83;;;;;;;;;;5072246;28;20446;-79
2021/12/16 07:43:41;;;;;;;24.47;16.90;;;;;;;;;;5067134;28;20453;-78
2021/12/16 07:46:08;;;;;;;21.90;14.60;;;;;;;;;;5072850;28;20453;-80
2021/12/16 07:48:35;;;;;;;22.67;15.90;;;;;;;;;;5074558;28;20437;-79
2021/12/16 07:51:03;;;;;;;21.80;15.33;;;;;;;;;;5071701;28;20476;-79
2021/12/16 07:53:31;;;;;;;21.33;14.97;;;;;;;;;;5073327;28;20445;-80
2021/12/16 07:56:00;;;;;;;22.03;15.33;;;;;;;;;;5074341;28;20438;-80
2021/12/16 07:58:27;;;;;;;25.30;15.80;;;;;;;;;;5073522;28;20484;-80
2021/12/16 08:00:56;;;;;;;22.30;16.23;;;;;;;;;;5069759;28;20450;-79
2021/12/16 08:03:23;;;;;;;20.50;14.80;;;;;;;;;;5072211;28;20457;-79
2021/12/16 08:05:54;;;;;;;21.00;14.80;;;;;;;;;;5062041;28;20464;-80
2021/12/16 08:08:21;;;;;;;21.17;15.60;;;;;;;;;;5058798;28;20533;-79
2021/12/16 08:10:49;;;;;;;19.53;14.20;;;;;;;;;;5059929;28;20431;-80
2021/12/16 08:13:18;;;;;;;19.00;14.97;;;;;;;;;;5061684;28;20834;-81
2021/12/16 08:15:45;;;;;;;19.70;14.50;;;;;;;;;;5063302;28;20470;-81
2021/12/16 08:18:12;;;;;;;18.52;13.43;;;;;;;;;;5061411;28;20480;-81
2021/12/16 08:20:40;;;;;;;19.53;14.40;;;;;;;;;;5060910;28;20187;-80
2021/12/16 08:23:07;;;;;;;24.67;15.80;;;;;;;;;;5061832;28;20449;-81
2021/12/16 08:25:34;;;;;;;17.37;12.40;;;;;;;;;;5062287;28;20473;-80
2021/12/16 08:28:03;;;;;;;19.75;14.32;;;;;;;;;;5061759;28;20438;-80
2021/12/16 08:30:33;;;;;;;19.90;14.93;;;;;;;;;;5061980;28;20199;-80
2021/12/16 08:33:04;;;;;;;18.65;13.55;;;;;;;;;;5058662;28;20797;-80
2021/12/16 08:35:32;;;;;;;21.27;12.90;;;;;;;;;;5057873;28;20694;-80
2021/12/16 08:37:59;;;;;;;20.30;13.97;;;;;;;;;;5061003;28;20547;-81
2021/12/16 08:40:27;;;;;;;20.97;15.53;;;;;;;;;;5062482;28;20476;-80
2021/12/16 08:42:54;;;;;;;20.00;15.80;;;;;;;;;;5059386;28;20776;-80
2021/12/16 08:45:22;;;;;;;18.93;14.80;;;;;;;;;;5056731;28;20465;-80
2021/12/16 08:47:51;;;;;;;39.60;24.90;;;;;;;;;;5057731;28;20448;-80
2021/12/16 08:50:19;;;;;;;34.93;24.40;;;;;;;;;;5058147;28;20991;-80
2021/12/16 08:52:47;;;;;;;21.30;15.80;;;;;;;;;;5056775;28;20446;-81
2021/12/16 08:55:15;;;;;;;20.20;15.00;;;;;;;;;;5056979;28;20477;-80
2021/12/16 08:57:42;;;;;;;20.90;15.00;;;;;;;;;;5055578;28;20987;-80
2021/12/16 09:00:11;;;;;;;21.80;15.03;;;;;;;;;;5058667;28;20901;-79
2021/12/16 09:02:38;;;;;;;24.13;17.10;;;;;;;;;;5057373;28;20450;-81
2021/12/16 09:05:07;;;;;;;23.50;15.70;;;;;;;;;;5057143;28;20469;-80
2021/12/16 09:07:34;;;;;;;19.50;14.67;;;;;;;;;;5057470;28;20430;-80
2021/12/16 09:10:01;;;;;;;23.20;15.98;;;;;;;;;;5067865;28;20425;-80
2021/12/16 09:12:50;;;;;;;22.33;15.53;;;;;;;;;;5077224;28;20175;-80
2021/12/16 09:15:17;;;;;;;27.67;16.47;;;;;;;;;;5077371;28;20472;-80
2021/12/16 09:17:44;;;;;;;24.85;15.75;;;;;;;;;;5076522;28;20465;-80
2021/12/16 09:20:13;;;;;;;23.03;15.63;;;;;;;;;;5066407;28;20203;-80
2021/12/16 09:22:40;;;;;;;20.90;14.00;;;;;;;;;;5056331;28;20460;-81
2021/12/16 09:25:08;;;;;;;28.10;18.27;;;;;;;;;;5057732;28;20458;-80
2021/12/16 09:27:35;;;;;;;24.00;16.40;;;;;;;;;;5057225;28;20441;-80
2021/12/16 09:30:02;;;;;;;24.83;16.13;;;;;;;;;;5057288;28;20446;-80
2021/12/16 09:32:31;;;;;;;21.27;15.70;;;;;;;;;;5058089;28;20445;-79
2021/12/16 09:34:58;;;;;;;22.00;14.83;;;;;;;;;;5061183;28;20469;-80
2021/12/16 09:37:28;;;;;;;20.57;15.60;;;;;;;;;;5057717;28;20476;-81
2021/12/16 09:39:55;;;;;;;24.60;16.43;;;;;;;;;;5059810;28;20568;-80
2021/12/16 09:42:24;;;;;;;21.37;15.17;;;;;;;;;;5057507;28;20456;-80
2021/12/16 09:44:52;;;;;;;20.20;14.60;;;;;;;;;;5057364;28;20450;-80
2021/12/16 09:47:21;;;;;;;23.10;15.33;;;;;;;;;;5057934;28;20870;-81
2021/12/16 09:49:48;;;;;;;25.87;16.10;;;;;;;;;;5058090;28;20433;-80
2021/12/16 09:52:15;;;;;;;21.37;14.83;;;;;;;;;;5057677;28;20445;-80
2021/12/16 09:54:45;;;;;;;18.07;13.57;;;;;;;;;;5058027;28;20469;-81
2021/12/16 09:57:12;;;;;;;23.77;15.70;;;;;;;;;;5051564;28;20482;-80
2021/12/16 09:59:40;;;;;;;20.42;14.77;;;;;;;;;;5059304;28;20924;-80
2021/12/16 10:02:08;;;;;;;20.70;15.00;;;;;;;;;;5059440;28;20203;-81
2021/12/16 10:04:35;;;;;;;23.10;14.80;;;;;;;;;;5058651;28;20469;-84
2021/12/16 10:07:04;;;;;;;24.33;15.90;;;;;;;;;;5059704;28;20438;-82
2021/12/16 10:09:31;;;;;;;23.57;16.17;;;;;;;;;;5058221;28;20431;-82
2021/12/16 10:12:06;;;;;;;22.08;14.88;;;;;;;;;;5057643;28;20452;-83
2021/12/16 10:14:48;;;;;;;23.93;16.57;;;;;;;;;;5057946;28;20219;-82
2021/12/16 10:17:24;;;;;;;22.00;15.30;;;;;;;;;;5057284;28;20470;-82
2021/12/16 10:19:51;;;;;;;27.53;15.70;;;;;;;;;;5060630;28;20792;-81
2021/12/16 10:22:20;;;;;;;21.90;15.77;;;;;;;;;;5057671;28;20441;-83
2021/12/16 10:24:59;;;;;;;23.20;15.03;;;;;;;;;;5067962;28;20484;-83
2021/12/16 10:46:26;;;;;;;20.57;14.93;;;;;;;;;;4860907;29;20498;-81
2021/12/16 10:49:16;;;;;;;22.75;16.23;;;;;;;;;;4953547;29;20533;-82
2021/12/16 10:51:44;;;;;;;24.73;16.53;;;;;;;;;;4974653;28;20214;-82
2021/12/16 10:54:15;;;;;;;21.03;14.83;;;;;;;;;;5075055;28;20806;-81
2021/12/16 10:56:44;;;;;;;24.10;16.50;;;;;;;;;;5055066;28;20483;-81
2021/12/16 10:59:12;;;;;;;22.57;16.80;;;;;;;;;;5047543;28;20881;-82
2021/12/16 11:01:57;;;;;;;23.47;15.70;;;;;;;;;;5039920;28;20442;-83
2021/12/16 11:04:28;;;;;;;21.80;14.13;;;;;;;;;;5054629;28;20472;-81
2021/12/16 11:06:58;;;;;;;19.83;14.97;;;;;;;;;;5055489;28;20429;-82
2021/12/16 11:09:31;;;;;;;22.43;15.60;;;;;;;;;;5058270;28;20863;-81
2021/12/16 11:12:18;;;;;;;22.63;16.00;;;;;;;;;;5060902;28;20466;-82
2021/12/16 11:14:47;;;;;;;22.37;15.60;;;;;;;;;;5070720;28;20465;-81
2021/12/16 11:17:15;;;;;;;21.87;15.53;;;;;;;;;;5066128;28;20933;-82
2021/12/16 11:19:45;;;;;;;22.03;15.97;;;;;;;;;;5060244;28;20434;-82
2021/12/16 11:22:13;;;;;;;21.70;15.50;;;;;;;;;;5055881;28;20538;-82
2021/12/16 11:24:40;;;;;;;23.50;15.33;;;;;;;;;;5067180;28;20466;-82
2021/12/16 11:27:21;;;;;;;25.03;15.60;;;;;;;;;;5064108;28;20437;-81
2021/12/16 11:29:48;;;;;;;21.13;15.65;;;;;;;;;;5060181;28;20430;-82
2021/12/16 11:32:30;;;;;;;22.90;16.20;;;;;;;;;;5060580;28;20210;-81
2021/12/16 11:34:58;;;;;;;31.27;21.30;;;;;;;;;;5061159;28;20469;-82
2021/12/16 11:37:25;;;;;;;29.53;20.00;;;;;;;;;;5060195;28;20425;-82
2021/12/16 11:39:52;;;;;;;25.83;16.77;;;;;;;;;;5061055;28;20430;-82
2021/12/16 11:42:27;;;;;;;23.50;16.53;;;;;;;;;;5059998;28;20500;-82
2021/12/16 11:44:56;;;;;;;22.07;15.40;;;;;;;;;;5061224;28;20469;-82
2021/12/16 11:47:25;;;;;;;21.60;16.43;;;;;;;;;;5060453;28;20444;-81
2021/12/16 11:49:54;;;;;;;22.60;16.20;;;;;;;;;;5060447;28;20445;-80
2021/12/16 11:52:24;;;;;;;23.77;14.93;;;;;;;;;;5060083;28;20453;-81
2021/12/16 11:54:53;;;;;;;34.60;25.67;;;;;;;;;;5059072;28;20477;-82
2021/12/16 11:57:23;;;;;;;20.13;16.27;;;;;;;;;;5059920;28;20461;-80
2021/12/16 11:59:52;;;;;;;23.07;17.07;;;;;;;;;;5060205;28;20446;-82
2021/12/16 12:02:22;;;;;;;23.70;16.73;;;;;;;;;;5060327;28;20456;-82
2021/12/16 12:04:49;;;;;;;19.63;15.03;;;;;;;;;;5060202;28;20470;-82
2021/12/16 12:07:17;;;;;;;20.57;15.27;;;;;;;;;;5059904;28;20449;-81
2021/12/16 12:09:48;;;;;;;18.70;14.70;;;;;;;;;;5060306;28;20448;-82
2021/12/16 12:12:15;;;;;;;25.73;16.37;;;;;;;;;;5059759;28;20809;-81
2021/12/16 12:14:44;;;;;;;23.27;16.00;;;;;;;;;;5060029;28;20445;-82
2021/12/16 12:17:12;;;;;;;22.63;15.70;;;;;;;;;;5059891;28;20859;-81
2021/12/16 12:19:44;;;;;;;32.77;16.20;;;;;;;;;;5059029;28;20474;-83
2021/12/16 12:22:11;;;;;;;19.23;14.80;;;;;;;;;;5059820;28;20431;-82
2021/12/16 12:24:40;;;;;;;24.40;15.93;;;;;;;;;;5059157;28;20473;-81
2021/12/16 12:27:11;;;;;;;22.17;16.10;;;;;;;;;;5059448;28;20454;-81
2021/12/16 12:29:39;;;;;;;23.37;16.23;;;;;;;;;;5059299;28;20474;-81
2021/12/16 12:32:10;;;;;;;20.90;15.17;;;;;;;;;;5059538;28;20450;-82
2021/12/16 12:34:38;;;;;;;26.13;17.33;;;;;;;;;;5059523;28;20466;-81
2021/12/16 12:37:07;;;;;;;21.47;15.50;;;;;;;;;;5060018;28;20435;-82
2021/12/16 12:39:38;;;;;;;21.60;15.83;;;;;;;;;;5060102;28;20551;-82
2021/12/16 12:42:06;;;;;;;25.23;17.90;;;;;;;;;;5060566;28;20735;-81
2021/12/16 12:44:35;;;;;;;20.80;15.97;;;;;;;;;;5059656;28;20553;-81
2021/12/16 12:47:10;;;;;;;20.60;16.20;;;;;;;;;;5059652;28;20907;-81
2021/12/16 12:49:50;;;;;;;23.30;16.07;;;;;;;;;;5059267;28;20534;-83
2021/12/16 12:52:30;;;;;;;23.00;15.07;;;;;;;;;;5058886;28;20481;-82
2021/12/16 12:55:01;;;;;;;21.55;16.02;;;;;;;;;;5058271;28;20469;-83
2021/12/16 12:57:56;;;;;;;19.88;14.20;;;;;;;;;;5045338;28;20203;-82
2021/12/16 13:00:31;;;;;;;21.67;14.90;;;;;;;;;;5033827;28;20454;-82
2021/12/16 13:02:59;;;;;;;21.27;15.00;;;;;;;;;;5035351;28;21023;-81
2021/12/16 13:05:27;;;;;;;22.73;15.80;;;;;;;;;;5041532;28;20886;-81
2021/12/16 13:07:58;;;;;;;21.10;15.57;;;;;;;;;;5037617;28;20938;-82
2021/12/16 13:10:26;;;;;;;20.92;14.93;;;;;;;;;;5037514;28;20469;-81
2021/12/16 13:12:59;;;;;;;24.27;16.43;;;;;;;;;;5038204;28;20209;-83
2021/12/16 13:15:36;;;;;;;25.23;15.57;;;;;;;;;;5038820;28;20524;-84
2021/12/16 13:23:49;;;;;;;25.70;15.93;;;;;;;;;;5036464;28;20441;-83
2021/12/16 13:29:12;;;;;;;23.40;15.90;;;;;;;;;;5023099;28;20419;-84
2021/12/16 13:31:50;;;;;;;21.53;16.77;;;;;;;;;;5038423;28;20471;-83
2021/12/16 13:34:34;;;;;;;20.60;15.90;;;;;;;;;;5056341;28;20458;-85
2021/12/16 13:37:06;;;;;;;21.20;15.83;;;;;;;;;;5056913;28;20195;-84
2021/12/16 13:39:33;;;;;;;17.87;15.00;;;;;;;;;;5057046;28;20495;-85
2021/12/16 13:42:03;;;;;;;21.30;16.67;;;;;;;;;;5065226;28;20464;-80
2021/12/16 13:44:43;;;;;;;18.20;15.20;;;;;;;;;;5068949;28;20590;-82
2021/12/16 13:47:14;;;;;;;22.33;15.10;;;;;;;;;;5059570;28;20894;-81
2021/12/16 13:58:43;;;;;;;18.98;13.63;;;;;;;;;;5062131;28;20455;-83
2021/12/16 14:04:12;;;;;;;19.27;14.60;;;;;;;;;;5059298;28;20214;-81
2021/12/16 14:06:54;;;;;;;22.47;15.47;;;;;;;;;;5062007;28;20445;-81
2021/12/16 14:09:27;;;;;;;22.63;15.87;;;;;;;;;;5064570;28;21200;-82
2021/12/16 14:14:52;;;;;;;22.77;15.50;;;;;;;;;;5068756;28;20211;-82
2021/12/16 14:17:43;;;;;;;24.20;15.00;;;;;;;;;;5071141;28;20950;-80
2021/12/16 14:23:07;;;;;;;19.50;14.93;;;;;;;;;;5062503;28;20428;-82
2021/12/16 14:25:40;;;;;;;25.20;16.10;;;;;;;;;;5069353;28;20478;-81
2021/12/16 14:31:26;;;;;;;21.47;14.80;;;;;;;;;;5054339;28;20436;-80
2021/12/16 14:48:21;;;;;;;21.60;15.20;;;;;;;;;;5081477;28;20200;-81
2021/12/16 14:50:51;;;;;;;20.13;16.00;;;;;;;;;;5087171;28;20444;-81
2021/12/16 14:53:22;;;;;;;20.93;13.77;;;;;;;;;;5086331;28;20445;-82
2021/12/16 14:55:52;;;;;;;21.37;14.27;;;;;;;;;;5089498;28;20460;-84
2021/12/16 14:58:20;;;;;;;17.90;15.73;;;;;;;;;;5085090;28;20442;-83
2021/12/16 15:00:49;;;;;;;21.13;14.90;;;;;;;;;;5086396;28;20445;-84
2021/12/16 15:03:18;;;;;;;18.30;14.50;;;;;;;;;;5065381;28;20452;-83
2021/12/16 15:05:47;;;;;;;19.60;15.70;;;;;;;;;;5060936;28;20469;-82
2021/12/16 15:08:18;;;;;;;24.20;15.23;;;;;;;;;;5063384;28;20445;-84
2021/12/16 15:10:47;;;;;;;22.90;15.60;;;;;;;;;;5063525;28;20485;-81
2021/12/16 15:13:20;;;;;;;23.50;15.47;;;;;;;;;;5064923;28;20455;-80
2021/12/16 15:16:05;;;;;;;15.87;13.73;;;;;;;;;;5064723;28;20469;-80
2021/12/16 15:38:20;;;;;;;17.97;14.87;;;;;;;;;;5064958;28;20418;-81
2021/12/16 15:43:45;;;;;;;25.53;19.90;;;;;;;;;;5062426;28;20427;-80
2021/12/16 15:46:13;;;;;;;41.27;31.40;;;;;;;;;;5064487;28;20473;-80
2021/12/16 15:48:40;;;;;;;33.17;28.40;;;;;;;;;;5062867;28;20438;-80
2021/12/16 15:51:08;;;;;;;28.08;21.20;;;;;;;;;;5063667;28;20918;-79
2021/12/16 15:53:37;;;;;;;20.03;16.10;;;;;;;;;;5059970;28;20201;-80
2021/12/16 15:56:07;;;;;;;23.10;17.40;;;;;;;;;;5061277;28;20477;-81
2021/12/16 15:58:36;;;;;;;20.73;16.93;;;;;;;;;;5061183;28;20465;-81
2021/12/16 16:01:06;;;;;;;23.97;19.37;;;;;;;;;;5060982;28;20429;-81
2021/12/16 16:03:33;;;;;;;24.20;18.42;;;;;;;;;;5060390;28;20443;-80
2021/12/16 16:06:02;;;;;;;20.60;18.00;;;;;;;;;;5059815;28;20245;-81
2021/12/16 16:08:32;;;;;;;20.53;18.30;;;;;;;;;;5059513;28;20442;-81
2021/12/16 16:11:00;;;;;;;18.65;15.55;;;;;;;;;;5062186;28;20443;-81
2021/12/16 16:13:28;;;;;;;16.30;13.90;;;;;;;;;;5062743;28;20195;-80
2021/12/16 16:15:56;;;;;;;26.13;15.60;;;;;;;;;;5062599;28;20446;-80
2021/12/16 16:18:37;;;;;;;19.80;15.07;;;;;;;;;;5063104;28;20530;-80
2021/12/16 16:21:07;;;;;;;19.80;15.63;;;;;;;;;;5062283;28;20231;-80
2021/12/16 16:23:36;;;;;;;20.57;16.00;;;;;;;;;;5057261;28;20925;-81
2021/12/16 16:26:05;;;;;;;16.80;14.97;;;;;;;;;;5061000;28;20459;-80
2021/12/16 16:28:32;;;;;;;18.43;15.80;;;;;;;;;;5061994;28;20446;-80
2021/12/16 16:31:00;;;;;;;16.63;14.80;;;;;;;;;;5061904;28;20513;-80
2021/12/16 16:33:33;;;;;;;17.20;15.43;;;;;;;;;;5059917;28;20495;-81
2021/12/16 16:36:03;;;;;;;20.37;16.53;;;;;;;;;;5060441;28;20470;-81
2021/12/16 16:38:32;;;;;;;21.90;15.80;;;;;;;;;;5062434;28;20465;-81
2021/12/16 16:41:00;;;;;;;22.67;15.73;;;;;;;;;;5063892;28;20449;-81
2021/12/16 16:43:30;;;;;;;25.40;15.00;;;;;;;;;;5062984;28;20913;-81
2021/12/16 16:45:59;;;;;;;21.07;15.43;;;;;;;;;;5061899;28;20470;-80
2021/12/16 16:48:40;;;;;;;18.90;15.13;;;;;;;;;;5062528;28;20441;-82
2021/12/16 16:51:10;;;;;;;16.53;13.87;;;;;;;;;;5063409;28;20222;-80
2021/12/16 16:53:45;;;;;;;20.43;15.70;;;;;;;;;;5062494;28;20461;-81
2021/12/16 16:56:12;;;;;;;17.37;13.97;;;;;;;;;;5063838;28;20848;-80
2021/12/16 16:58:39;;;;;;;16.27;13.33;;;;;;;;;;5062779;28;20956;-80
2021/12/16 17:01:06;;;;;;;16.13;13.60;;;;;;;;;;5064061;28;20499;-80
2021/12/16 17:03:33;;;;;;;18.03;13.90;;;;;;;;;;5062026;28;20513;-79
2021/12/16 17:06:03;;;;;;;18.43;14.40;;;;;;;;;;5062598;28;20466;-81
2021/12/16 17:08:34;;;;;;;21.93;15.60;;;;;;;;;;5063612;28;20700;-80
2021/12/16 17:11:02;;;;;;;22.33;15.63;;;;;;;;;;5063811;28;20448;-81
2021/12/16 17:13:40;;;;;;;26.30;21.87;;;;;;;;;;5070935;28;21051;-79
2021/12/16 17:18:54;;;;;;;14.70;13.23;;;;;;;;;;5066785;28;20472;-80
2021/12/16 17:21:23;;;;;;;17.27;15.40;;;;;;;;;;5065503;28;20449;-80
2021/12/16 17:23:53;;;;;;;20.70;14.80;;;;;;;;;;5066605;28;20447;-80
2021/12/16 17:26:22;;;;;;;17.17;15.37;;;;;;;;;;5070435;28;20458;-80
2021/12/16 17:28:53;;;;;;;17.27;14.77;;;;;;;;;;5062773;28;20960;-80
2021/12/16 17:31:31;;;;;;;17.27;15.27;;;;;;;;;;5062889;28;20519;-82
2021/12/16 17:34:05;;;;;;;18.23;13.90;;;;;;;;;;5059553;28;20707;-81
2021/12/16 17:36:32;;;;;;;35.13;31.63;;;;;;;;;;5057995;28;20449;-80
2021/12/16 17:39:08;;;;;;;24.07;21.53;;;;;;;;;;5057365;28;20207;-82
2021/12/16 17:41:36;;;;;;;25.30;18.77;;;;;;;;;;5056094;28;21094;-83
2021/12/16 17:44:10;;;;;;;21.10;17.93;;;;;;;;;;5056949;28;20928;-80
2021/12/16 17:46:38;;;;;;;19.80;15.90;;;;;;;;;;5057920;28;20458;-81